Fife, Washington
Current Conditions -  °F | °C
As of 1:12 AM on Monday 20 Oct 2014 (Local Time) from KTCM Reporting Station
Light Rain Light Rain  
Wind Chill: 59°   Ceiling: 7500
Heat Index: 59°   Visibility: 10mi
Dew Point: 57°   Wind: 0mph
Humidity: 94%   Direction: NA
Pressure: 29.71"   Gusts: NA
Location:  47.2401°N, 122.358°W
Report Text: KTCM 200812Z AUTO 00000KT 10SM -RA FEW045 OVC075 15/14 A2971 RMK AO2
Loading
Personal Weather Stations






























Interactive Weather Map
Tropical Storm Tracking
New forecast layout! Learn more

10-Day Weather Forecast

Advertisements
Track Severe Weather on mobile